createdAt,value
2018-07-11T00:00:09.072Z,5.90
2018-07-11T00:01:09.088Z,6.20
2018-07-11T00:02:09.110Z,6.10
2018-07-11T00:03:09.114Z,6.00
2018-07-11T00:04:09.127Z,6.00
2018-07-11T00:05:09.141Z,6.10
2018-07-11T00:06:09.159Z,6.50
2018-07-11T00:07:09.288Z,7.00
2018-07-11T00:08:09.246Z,6.40
2018-07-11T00:09:09.440Z,6.80
2018-07-11T00:10:09.779Z,6.10
2018-07-11T00:14:09.274Z,6.50
2018-07-11T00:15:09.393Z,6.60
2018-07-11T00:16:09.302Z,6.50
2018-07-11T00:17:09.317Z,6.70
2018-07-11T00:18:09.751Z,7.00
2018-07-11T00:19:09.346Z,7.10
2018-07-11T00:20:09.376Z,7.10
2018-07-11T00:21:09.386Z,6.60
2018-07-11T00:22:09.393Z,6.30
2018-07-11T00:23:09.416Z,6.30
2018-07-11T00:24:09.418Z,6.70
2018-07-11T00:25:09.433Z,6.40
2018-07-11T00:26:09.452Z,6.60
2018-07-11T00:27:09.464Z,6.90
2018-07-11T00:28:09.477Z,6.60
2018-07-11T00:29:09.492Z,7.10
2018-07-11T00:30:09.508Z,6.90
2018-07-11T00:31:09.523Z,6.60
2018-07-11T00:32:09.536Z,6.90
2018-07-11T00:33:09.552Z,6.70
2018-07-11T00:34:09.566Z,6.60
2018-07-11T00:35:09.583Z,6.60
2018-07-11T00:36:09.656Z,7.10
2018-07-11T00:37:09.679Z,6.90
2018-07-11T00:38:09.632Z,6.90
2018-07-11T00:39:09.641Z,6.90
2018-07-11T00:40:09.687Z,6.40
2018-07-11T00:41:09.678Z,7.00
2018-07-11T00:42:09.684Z,6.50
2018-07-11T00:43:09.701Z,6.50
2018-07-11T00:44:09.715Z,7.00
2018-07-11T00:45:09.728Z,6.50
2018-07-11T00:46:09.744Z,6.90
2018-07-11T00:47:09.761Z,6.50
2018-07-11T00:48:09.771Z,6.80
2018-07-11T00:49:09.790Z,7.00
2018-07-11T00:50:09.806Z,6.70
2018-07-11T00:51:09.841Z,7.10
2018-07-11T00:52:09.828Z,6.80
2018-07-11T00:53:09.972Z,7.20
2018-07-11T00:54:10.207Z,7.30
2018-07-11T00:55:09.899Z,7.10
2018-07-11T00:56:09.891Z,6.70
2018-07-11T00:57:09.903Z,6.40
2018-07-11T00:58:10.007Z,7.20
2018-07-11T00:59:09.933Z,6.60
2018-07-11T01:00:09.946Z,6.90
2018-07-11T01:01:09.962Z,6.80
2018-07-11T01:02:09.979Z,6.90
2018-07-11T01:03:10.011Z,6.80
2018-07-11T01:04:10.007Z,6.90
2018-07-11T01:05:10.026Z,6.70
2018-07-11T01:06:10.083Z,6.80
2018-07-11T01:07:10.835Z,7.60
2018-07-11T01:09:10.084Z,7.10
2018-07-11T01:10:10.099Z,6.60
2018-07-11T01:11:10.125Z,6.80
2018-07-11T01:12:10.210Z,7.60
2018-07-11T01:13:10.211Z,7.00
2018-07-11T01:14:10.168Z,7.10
2018-07-11T01:15:10.168Z,6.90
2018-07-11T01:16:10.184Z,7.40
2018-07-11T01:17:10.252Z,7.10
2018-07-11T01:18:10.218Z,7.30
2018-07-11T01:19:10.229Z,7.30
2018-07-11T01:20:10.242Z,6.70
2018-07-11T01:21:10.257Z,6.70
2018-07-11T01:22:10.278Z,7.10
2018-07-11T01:23:10.291Z,7.60
2018-07-11T01:24:10.381Z,6.90
2018-07-11T01:25:10.895Z,7.40
2018-07-11T01:26:10.332Z,7.00
2018-07-11T01:27:10.347Z,7.20
2018-07-11T01:28:10.362Z,7.10
2018-07-11T01:29:10.385Z,7.10
2018-07-11T01:30:10.391Z,7.10
2018-07-11T01:31:10.406Z,7.30
2018-07-11T01:32:10.420Z,7.30
2018-07-11T01:33:10.436Z,7.70
2018-07-11T01:34:10.451Z,8.20
2018-07-11T01:35:10.464Z,7.30
2018-07-11T01:36:10.483Z,8.00
2018-07-11T01:37:10.493Z,8.20
2018-07-11T01:38:10.733Z,7.40
2018-07-11T01:39:10.523Z,7.70
2018-07-11T01:40:10.572Z,7.70
2018-07-11T01:41:10.565Z,7.50
2018-07-11T01:42:10.575Z,7.70
2018-07-11T01:43:10.587Z,7.70
2018-07-11T01:44:10.614Z,7.70
2018-07-11T01:45:10.612Z,8.10
2018-07-11T01:46:10.629Z,7.50
2018-07-11T01:47:10.701Z,7.80
2018-07-11T01:48:10.732Z,7.90
2018-07-11T01:49:10.778Z,7.70
2018-07-11T01:50:10.689Z,8.10
2018-07-11T01:51:10.810Z,8.00
2018-07-11T01:52:10.714Z,7.80
2018-07-11T01:53:11.377Z,7.80
2018-07-11T01:54:10.979Z,8.20
2018-07-11T01:55:10.767Z,8.30
2018-07-11T01:56:10.776Z,8.10
2018-07-11T01:57:10.790Z,8.10
2018-07-11T01:58:10.823Z,7.70
2018-07-11T01:59:10.817Z,7.90
2018-07-11T02:00:10.831Z,7.20
2018-07-11T02:01:10.850Z,7.80
2018-07-11T02:02:10.861Z,7.70
2018-07-11T02:03:10.875Z,7.40
2018-07-11T02:04:10.889Z,7.80
2018-07-11T02:05:10.915Z,8.50
2018-07-11T02:06:10.930Z,8.30
2018-07-11T02:07:10.935Z,7.80
2018-07-11T02:08:10.948Z,7.70
2018-07-11T02:09:10.962Z,8.00
2018-07-11T02:10:10.986Z,8.10
2018-07-11T02:11:10.994Z,7.80
2018-07-11T02:12:11.017Z,8.60
2018-07-11T02:13:11.023Z,8.00
2018-07-11T02:14:11.035Z,8.30
2018-07-11T02:15:11.050Z,7.70
2018-07-11T02:16:11.064Z,9.00
2018-07-11T02:17:11.079Z,8.20
2018-07-11T02:18:11.097Z,8.30
2018-07-11T02:19:11.128Z,8.50
2018-07-11T02:20:11.131Z,8.60
2018-07-11T02:21:11.159Z,8.50
2018-07-11T02:22:11.276Z,7.80
2018-07-11T02:23:11.569Z,8.70
2018-07-11T02:24:11.427Z,8.50
2018-07-11T02:25:11.195Z,8.60
2018-07-11T02:26:11.278Z,8.10
2018-07-11T02:27:11.248Z,8.60
2018-07-11T02:28:11.290Z,8.90
2018-07-11T02:29:11.308Z,8.30
2018-07-11T02:30:11.269Z,8.30
2018-07-11T02:31:11.283Z,8.40
2018-07-11T02:32:11.299Z,8.40
2018-07-11T02:33:11.316Z,8.50
2018-07-11T02:34:11.327Z,8.20
2018-07-11T02:35:11.340Z,8.80
2018-07-11T02:36:11.358Z,8.20
2018-07-11T02:37:11.370Z,8.60
2018-07-11T02:38:11.385Z,8.70
2018-07-11T02:39:11.398Z,8.70
2018-07-11T02:40:11.413Z,9.00
2018-07-11T02:41:11.427Z,9.00
2018-07-11T02:42:11.453Z,8.60
2018-07-11T02:43:11.457Z,9.10
2018-07-11T02:44:11.475Z,8.80
2018-07-11T02:45:11.487Z,9.30
2018-07-11T02:46:11.500Z,9.40
2018-07-11T02:47:11.519Z,9.20
2018-07-11T02:48:11.538Z,8.60
2018-07-11T02:49:11.543Z,8.90
2018-07-11T02:50:11.568Z,9.30
2018-07-11T02:51:11.683Z,8.50
2018-07-11T02:52:11.637Z,8.80
2018-07-11T02:53:11.867Z,9.40
2018-07-11T02:54:11.637Z,9.40
2018-07-11T02:55:11.630Z,8.20
2018-07-11T02:56:11.641Z,8.80
2018-07-11T02:57:11.789Z,9.00
2018-07-11T02:58:11.675Z,9.40
2018-07-11T02:59:11.686Z,9.00
2018-07-11T03:00:11.722Z,9.30
2018-07-11T03:01:11.718Z,9.40
2018-07-11T03:02:11.749Z,9.80
2018-07-11T03:03:11.748Z,9.10
2018-07-11T03:04:11.762Z,9.20
2018-07-11T03:05:11.776Z,8.90
2018-07-11T03:06:11.795Z,9.00
2018-07-11T03:07:11.800Z,9.20
2018-07-11T03:08:11.814Z,9.50
2018-07-11T03:09:11.830Z,9.50
2018-07-11T03:10:11.852Z,9.60
2018-07-11T03:11:11.858Z,9.10
2018-07-11T03:12:11.871Z,9.80
2018-07-11T03:13:11.886Z,9.50
2018-07-11T03:14:11.902Z,9.20
2018-07-11T03:15:12.067Z,9.90
2018-07-11T03:16:11.931Z,9.30
2018-07-11T03:17:11.945Z,9.50
2018-07-11T03:18:11.968Z,8.90
2018-07-11T03:19:11.974Z,9.40
2018-07-11T03:20:11.990Z,9.60
2018-07-11T03:21:12.005Z,9.60
2018-07-11T03:22:12.179Z,9.60
2018-07-11T03:23:12.274Z,8.90
2018-07-11T03:24:12.119Z,9.80
2018-07-11T03:25:12.066Z,10.10
2018-07-11T03:26:12.102Z,9.80
2018-07-11T03:28:12.101Z,9.80
2018-07-11T03:29:12.142Z,9.90
2018-07-11T03:30:12.134Z,10.00
2018-07-11T03:31:12.146Z,9.40
2018-07-11T03:32:12.280Z,9.60
2018-07-11T03:33:12.175Z,9.70
2018-07-11T03:34:12.188Z,9.50
2018-07-11T03:35:12.205Z,9.30
2018-07-11T03:36:12.223Z,9.70
2018-07-11T03:37:12.232Z,9.10
2018-07-11T03:38:12.247Z,9.40
2018-07-11T03:39:12.260Z,9.20
2018-07-11T03:40:12.343Z,9.70
2018-07-11T03:41:12.288Z,10.10
2018-07-11T03:42:12.301Z,10.40
2018-07-11T03:43:12.318Z,9.40
2018-07-11T03:44:12.333Z,9.90
2018-07-11T03:45:12.347Z,9.90
2018-07-11T03:46:12.374Z,9.70
2018-07-11T03:47:12.375Z,9.90
2018-07-11T03:48:12.389Z,9.80
2018-07-11T03:49:12.402Z,9.40
2018-07-11T03:50:12.421Z,9.20
2018-07-11T03:51:12.435Z,9.90
2018-07-11T03:52:12.449Z,9.50
2018-07-11T03:53:12.461Z,9.30
2018-07-11T03:54:12.475Z,10.00
2018-07-11T03:55:12.491Z,9.50
2018-07-11T03:56:12.604Z,9.80
2018-07-11T03:57:12.688Z,9.60
2018-07-11T03:59:12.758Z,9.30
2018-07-11T04:00:14.803Z,9.80
2018-07-11T04:01:12.633Z,9.60
2018-07-11T04:03:12.625Z,9.20
2018-07-11T04:04:12.619Z,8.80
2018-07-11T04:05:12.680Z,9.90
2018-07-11T04:06:12.649Z,9.40
2018-07-11T04:07:12.662Z,9.70
2018-07-11T04:08:12.676Z,9.50
2018-07-11T04:09:12.689Z,9.20
2018-07-11T04:10:12.706Z,9.20
2018-07-11T04:11:12.719Z,8.80
2018-07-11T04:12:12.738Z,9.60
2018-07-11T04:13:12.806Z,10.00
2018-07-11T04:14:12.777Z,9.30
2018-07-11T04:15:12.776Z,9.10
2018-07-11T04:16:12.791Z,9.40
2018-07-11T04:17:12.805Z,9.40
2018-07-11T04:18:12.831Z,8.40
2018-07-11T04:19:12.921Z,9.40
2018-07-11T04:20:12.855Z,9.30
2018-07-11T04:21:12.939Z,9.00
2018-07-11T04:22:12.874Z,9.00
2018-07-11T04:23:12.950Z,8.80
2018-07-11T04:24:12.908Z,8.90
2018-07-11T04:25:12.918Z,8.60
2018-07-11T04:26:12.935Z,8.30
2018-07-11T04:27:12.964Z,9.00
2018-07-11T04:28:12.962Z,8.70
2018-07-11T04:29:12.984Z,8.30
2018-07-11T04:30:12.988Z,8.60
2018-07-11T04:31:13.026Z,8.80
2018-07-11T04:32:13.019Z,8.00
2018-07-11T04:33:13.396Z,8.10
2018-07-11T04:34:13.057Z,8.00
2018-07-11T04:35:13.064Z,8.50
2018-07-11T04:36:13.150Z,8.80
2018-07-11T04:37:13.147Z,7.40
2018-07-11T04:38:13.118Z,7.70
2018-07-11T04:39:13.122Z,8.00
2018-07-11T04:40:13.412Z,8.50
2018-07-11T04:41:13.191Z,8.20
2018-07-11T04:42:13.176Z,7.90
2018-07-11T04:43:13.180Z,8.70
2018-07-11T04:44:13.253Z,8.30
2018-07-11T04:46:13.232Z,8.20
2018-07-11T04:47:13.444Z,8.20
2018-07-11T04:48:13.252Z,7.90
2018-07-11T04:49:13.319Z,7.60
2018-07-11T04:51:13.339Z,8.10
2018-07-11T04:52:13.320Z,7.70
2018-07-11T04:53:13.463Z,7.90
2018-07-11T04:54:13.374Z,7.90
2018-07-11T04:55:13.357Z,7.80
2018-07-11T04:56:13.533Z,8.00
2018-07-11T04:57:13.819Z,8.30
2018-07-11T04:58:13.558Z,7.60
2018-07-11T04:59:13.427Z,7.30
2018-07-11T05:00:13.555Z,7.40
2018-07-11T05:01:13.523Z,8.30
2018-07-11T05:03:13.463Z,8.50
2018-07-11T05:04:14.225Z,8.00
2018-07-11T05:05:13.490Z,8.20
2018-07-11T05:06:13.507Z,7.70
2018-07-11T05:07:13.856Z,8.30
2018-07-11T05:08:13.712Z,8.20
2018-07-11T05:09:13.571Z,8.00
2018-07-11T05:10:13.573Z,8.00
2018-07-11T05:13:13.659Z,7.90
2018-07-11T05:14:13.743Z,7.90
2018-07-11T05:15:13.663Z,7.60
2018-07-11T05:16:13.691Z,7.80
2018-07-11T05:17:13.680Z,7.50
2018-07-11T05:18:13.680Z,8.30
2018-07-11T05:19:13.696Z,7.70
2018-07-11T05:20:13.707Z,7.70
2018-07-11T05:21:13.721Z,8.00
2018-07-11T05:22:13.739Z,7.10
2018-07-11T05:23:13.752Z,8.60
2018-07-11T05:24:13.766Z,8.20
2018-07-11T05:25:13.831Z,7.70
2018-07-11T05:26:14.598Z,8.10
2018-07-11T05:27:14.806Z,7.60
2018-07-11T05:28:14.599Z,7.30
2018-07-11T05:29:13.901Z,8.10
2018-07-11T05:30:14.292Z,7.70
2018-07-11T05:31:15.281Z,7.70
2018-07-11T05:32:14.120Z,7.00
2018-07-11T05:33:14.192Z,7.50
2018-07-11T05:34:14.833Z,7.80
2018-07-11T05:35:13.937Z,7.30
2018-07-11T05:36:14.943Z,7.40
2018-07-11T05:37:14.429Z,6.80
2018-07-11T05:38:14.222Z,7.00
2018-07-11T05:39:14.099Z,7.30
2018-07-11T05:40:14.655Z,7.20
2018-07-11T05:41:14.061Z,7.20
2018-07-11T05:42:14.067Z,7.50
2018-07-11T05:43:14.052Z,7.40
2018-07-11T05:44:14.097Z,7.30
2018-07-11T05:45:14.114Z,7.50
2018-07-11T05:46:14.194Z,7.30
2018-07-11T05:47:14.107Z,7.40
2018-07-11T05:49:14.203Z,7.80
2018-07-11T05:50:15.054Z,7.90
2018-07-11T05:51:14.158Z,7.30
2018-07-11T05:52:14.321Z,7.40
2018-07-11T05:54:14.205Z,6.60
2018-07-11T05:55:14.219Z,7.00
2018-07-11T05:56:14.232Z,6.70
2018-07-11T05:57:14.269Z,7.10
2018-07-11T05:58:14.261Z,6.80
2018-07-11T05:59:14.274Z,6.90
2018-07-11T06:00:14.527Z,7.40
2018-07-11T06:01:14.340Z,6.70
2018-07-11T06:02:14.441Z,6.70
2018-07-11T06:04:14.738Z,8.10
2018-07-11T06:05:14.354Z,7.30
2018-07-11T06:06:14.369Z,6.80
2018-07-11T06:07:14.395Z,7.30
2018-07-11T06:08:14.422Z,7.00
2018-07-11T06:09:14.414Z,6.60
2018-07-11T06:10:14.588Z,7.50
2018-07-11T06:11:15.368Z,7.50
2018-07-11T06:12:14.457Z,7.70
2018-07-11T06:13:15.039Z,6.90
2018-07-11T06:15:14.501Z,6.30
2018-07-11T06:16:14.575Z,6.50
2018-07-11T06:17:14.530Z,6.30
2018-07-11T06:18:14.550Z,6.40
2018-07-11T06:19:14.639Z,6.30
2018-07-11T06:20:14.591Z,6.60
2018-07-11T06:21:14.593Z,6.80
2018-07-11T06:22:14.612Z,7.00
2018-07-11T06:23:14.620Z,5.70
2018-07-11T06:24:14.635Z,6.80
2018-07-11T06:25:14.651Z,6.40
2018-07-11T06:26:14.670Z,6.70
2018-07-11T06:27:14.680Z,6.20
2018-07-11T06:28:14.712Z,6.80
2018-07-11T06:29:14.711Z,6.50
2018-07-11T06:30:14.740Z,6.50
2018-07-11T06:31:14.857Z,7.10
2018-07-11T06:32:14.761Z,6.20
2018-07-11T06:33:14.783Z,6.60
2018-07-11T06:34:14.788Z,6.20
2018-07-11T06:35:14.803Z,6.30
2018-07-11T06:36:14.820Z,7.10
2018-07-11T06:37:14.850Z,6.90
2018-07-11T06:38:14.849Z,6.80
2018-07-11T06:40:14.934Z,6.00
2018-07-11T06:41:15.263Z,6.50
2018-07-11T06:42:14.909Z,6.20
2018-07-11T06:43:14.923Z,6.90
2018-07-11T06:44:14.939Z,6.80
2018-07-11T06:45:14.955Z,6.20
2018-07-11T06:46:14.972Z,6.70
2018-07-11T06:47:14.988Z,6.50
2018-07-11T06:48:15.004Z,6.40
2018-07-11T06:49:15.017Z,6.30
2018-07-11T06:50:15.032Z,6.30
2018-07-11T06:51:15.056Z,5.50
2018-07-11T06:52:15.069Z,7.10
2018-07-11T06:53:15.080Z,6.20
2018-07-11T06:54:15.093Z,7.00
2018-07-11T06:55:15.108Z,6.80
2018-07-11T06:56:15.672Z,6.80
2018-07-11T06:57:15.817Z,7.00
2018-07-11T06:58:16.087Z,6.80
2018-07-11T06:59:15.168Z,6.90
2018-07-11T07:00:15.182Z,6.80
2018-07-11T07:01:15.198Z,7.40
2018-07-11T07:02:15.214Z,7.40
2018-07-11T07:03:15.234Z,7.50
2018-07-11T07:04:15.927Z,6.70
2018-07-11T07:05:15.376Z,6.80
2018-07-11T07:06:15.803Z,6.80
2018-07-11T07:07:15.299Z,6.30
2018-07-11T07:08:15.307Z,6.80
2018-07-11T07:09:15.385Z,7.30
2018-07-11T07:10:15.361Z,7.20
2018-07-11T07:11:15.354Z,7.20
2018-07-11T07:12:15.367Z,6.50
2018-07-11T07:13:16.524Z,6.90
2018-07-11T07:14:15.784Z,6.80
2018-07-11T07:15:16.159Z,7.40
2018-07-11T07:16:15.604Z,7.10
2018-07-11T07:17:15.624Z,7.40
2018-07-11T07:18:15.466Z,6.80
2018-07-11T07:19:15.475Z,7.20
2018-07-11T07:21:15.623Z,7.10
2018-07-11T07:22:15.909Z,7.10
2018-07-11T07:23:15.538Z,7.50
2018-07-11T07:24:15.561Z,6.80
2018-07-11T07:25:15.578Z,7.00
2018-07-11T07:26:15.584Z,7.10
2018-07-11T07:27:15.600Z,6.90
2018-07-11T07:28:15.620Z,6.40
2018-07-11T07:29:15.634Z,6.10
2018-07-11T07:30:15.650Z,6.80
2018-07-11T07:31:15.666Z,7.30
2018-07-11T07:32:15.675Z,6.50
2018-07-11T07:33:15.694Z,6.20
2018-07-11T07:34:15.713Z,6.60
2018-07-11T07:35:15.726Z,6.30
2018-07-11T07:36:15.748Z,6.60
2018-07-11T07:37:15.755Z,6.50
2018-07-11T07:38:15.772Z,6.40
2018-07-11T07:39:15.789Z,6.50
2018-07-11T07:40:15.815Z,24.70
2018-07-11T07:41:15.838Z,10.20
2018-07-11T07:42:15.840Z,9.30
2018-07-11T07:43:15.849Z,9.10
2018-07-11T07:44:15.865Z,9.80
2018-07-11T07:45:15.928Z,7.80
2018-07-11T07:46:16.101Z,7.30
2018-07-11T07:47:15.916Z,7.60
2018-07-11T07:48:15.940Z,6.80
2018-07-11T07:49:15.943Z,6.90
2018-07-11T07:50:15.983Z,6.60
2018-07-11T07:51:15.976Z,7.40
2018-07-11T07:52:15.994Z,6.80
2018-07-11T07:53:16.024Z,6.50
2018-07-11T07:54:16.030Z,6.80
2018-07-11T07:55:16.042Z,6.50
2018-07-11T07:56:16.052Z,6.40
2018-07-11T07:57:16.066Z,6.70
2018-07-11T07:58:16.087Z,7.20
2018-07-11T07:59:16.128Z,6.40
2018-07-11T08:00:16.117Z,6.80
2018-07-11T08:01:16.205Z,7.10
2018-07-11T08:02:16.148Z,6.90
2018-07-11T08:03:16.169Z,6.50
2018-07-11T08:04:16.183Z,6.60
2018-07-11T08:05:16.338Z,6.20
2018-07-11T08:06:16.231Z,6.60
2018-07-11T08:07:16.238Z,7.10
2018-07-11T08:08:16.247Z,7.50
2018-07-11T08:09:16.288Z,5.90
2018-07-11T08:10:16.292Z,6.80
2018-07-11T08:11:16.308Z,7.10
2018-07-11T08:12:16.509Z,6.70
2018-07-11T08:13:16.426Z,6.30
2018-07-11T08:14:16.354Z,6.60
2018-07-11T08:15:16.355Z,6.90
2018-07-11T08:16:16.370Z,6.80
2018-07-11T08:17:16.428Z,7.00
2018-07-11T08:18:16.407Z,6.40
2018-07-11T08:20:18.297Z,6.90
2018-07-11T08:21:16.813Z,7.00
2018-07-11T08:22:16.468Z,6.40
2018-07-11T08:23:16.480Z,6.80
2018-07-11T08:24:16.498Z,6.40
2018-07-11T08:25:16.514Z,5.90
2018-07-11T08:26:16.530Z,6.70
2018-07-11T08:27:16.626Z,6.70
2018-07-11T08:28:16.561Z,6.40
2018-07-11T08:29:16.618Z,6.40
2018-07-11T08:30:18.628Z,6.10
2018-07-11T08:31:17.883Z,6.90
2018-07-11T08:32:16.628Z,13.50
2018-07-11T08:33:16.644Z,12.50
2018-07-11T08:34:16.659Z,7.00
2018-07-11T08:35:16.672Z,6.60
2018-07-11T08:36:16.689Z,7.80
2018-07-11T08:37:16.854Z,7.00
2018-07-11T08:38:16.722Z,6.30
2018-07-11T08:39:16.841Z,6.60
2018-07-11T08:40:16.767Z,7.10
2018-07-11T08:41:16.819Z,6.80
2018-07-11T08:42:16.789Z,6.80
2018-07-11T08:43:17.063Z,6.60
2018-07-11T08:44:16.938Z,6.70
2018-07-11T08:45:16.846Z,6.40
2018-07-11T08:46:16.882Z,6.30
2018-07-11T08:47:16.900Z,6.10
2018-07-11T08:48:16.941Z,5.90
2018-07-11T08:49:16.895Z,6.10
2018-07-11T08:51:16.923Z,6.30
2018-07-11T08:52:16.952Z,6.00
2018-07-11T08:53:16.954Z,5.80
2018-07-11T08:54:16.972Z,5.60
2018-07-11T08:55:16.987Z,5.50
2018-07-11T08:56:17.001Z,5.90
2018-07-11T08:57:17.018Z,5.30
2018-07-11T08:58:17.038Z,5.40
2018-07-11T08:59:17.072Z,5.70
2018-07-11T09:00:17.066Z,5.50
2018-07-11T09:01:17.083Z,5.40
2018-07-11T09:02:17.096Z,5.60
2018-07-11T09:03:17.125Z,5.90
2018-07-11T09:04:17.142Z,4.80
2018-07-11T09:05:17.155Z,5.70
2018-07-11T09:06:17.162Z,5.90
2018-07-11T09:07:17.188Z,6.20
2018-07-11T09:08:17.675Z,6.20
2018-07-11T09:09:17.281Z,5.60
2018-07-11T09:11:17.325Z,6.30
2018-07-11T09:12:18.084Z,5.70
2018-07-11T09:13:17.269Z,5.70
2018-07-11T09:14:17.294Z,6.00
2018-07-11T09:15:17.622Z,5.90
2018-07-11T09:16:17.415Z,6.10
2018-07-11T09:17:17.332Z,6.00
2018-07-11T09:18:17.570Z,5.60
2018-07-11T09:19:17.553Z,5.90
2018-07-11T09:20:17.494Z,5.90
2018-07-11T09:21:17.559Z,5.50
2018-07-11T09:23:19.133Z,5.50
2018-07-11T09:24:17.456Z,5.80
2018-07-11T09:25:18.647Z,6.90
2018-07-11T09:26:17.475Z,6.00
2018-07-11T09:27:17.489Z,5.90
2018-07-11T09:28:17.519Z,6.40
2018-07-11T09:29:17.517Z,5.70
2018-07-11T09:30:17.539Z,6.20
2018-07-11T09:31:17.552Z,5.80
2018-07-11T09:32:17.566Z,5.90
2018-07-11T09:33:18.235Z,5.90
2018-07-11T09:34:17.614Z,5.90
2018-07-11T09:35:17.615Z,5.50
2018-07-11T09:36:17.667Z,5.50
2018-07-11T09:37:17.660Z,5.10
2018-07-11T09:38:17.663Z,5.00
2018-07-11T09:39:17.692Z,5.50
2018-07-11T09:40:17.691Z,5.30
2018-07-11T09:41:17.709Z,4.90
2018-07-11T09:43:17.743Z,5.30
2018-07-11T09:44:17.757Z,4.90
2018-07-11T09:45:17.773Z,5.80
2018-07-11T09:46:17.795Z,5.20
2018-07-11T09:47:17.810Z,4.90
2018-07-11T09:48:17.828Z,5.50
2018-07-11T09:49:17.835Z,5.10
2018-07-11T09:50:19.824Z,5.00
2018-07-11T09:51:17.874Z,5.40
2018-07-11T09:52:17.992Z,4.80
2018-07-11T09:54:17.928Z,4.90
2018-07-11T09:55:17.939Z,4.90
2018-07-11T09:56:18.172Z,4.60
2018-07-11T09:58:20.314Z,4.50
2018-07-11T09:59:18.007Z,5.20
2018-07-11T10:00:18.022Z,4.40
2018-07-11T10:01:18.035Z,4.40
2018-07-11T10:02:18.724Z,4.40
2018-07-11T10:03:18.067Z,4.50
2018-07-11T10:04:18.084Z,4.20
2018-07-11T10:05:18.178Z,4.20
2018-07-11T10:06:18.120Z,4.60
2018-07-11T10:07:18.131Z,4.60
2018-07-11T10:08:18.151Z,6.90
2018-07-11T10:09:18.167Z,4.70
2018-07-11T10:10:18.180Z,4.80
2018-07-11T10:11:18.195Z,4.40
2018-07-11T10:12:18.238Z,4.80
2018-07-11T10:13:18.226Z,4.60
2018-07-11T10:14:18.252Z,4.20
2018-07-11T10:15:18.262Z,4.00
2018-07-11T10:16:18.275Z,4.30
2018-07-11T10:17:18.293Z,4.30
2018-07-11T10:18:18.308Z,4.10
2018-07-11T10:19:18.326Z,4.20
2018-07-11T10:20:18.646Z,4.00
2018-07-11T10:22:18.370Z,4.30
2018-07-11T10:23:18.393Z,4.20
2018-07-11T10:24:18.415Z,4.30
2018-07-11T10:25:18.426Z,4.30
2018-07-11T10:26:18.437Z,4.40
2018-07-11T10:27:18.454Z,4.50
2018-07-11T10:29:19.095Z,4.30
2018-07-11T10:30:19.063Z,4.40
2018-07-11T10:32:18.533Z,4.30
2018-07-11T10:33:18.559Z,4.30
2018-07-11T10:34:18.563Z,4.00
2018-07-11T10:35:18.586Z,4.60
2018-07-11T10:36:18.599Z,3.90
2018-07-11T10:37:18.614Z,4.20
2018-07-11T10:38:18.632Z,4.20
2018-07-11T10:39:18.649Z,4.10
2018-07-11T10:40:18.989Z,4.70
2018-07-11T10:41:18.684Z,4.30
2018-07-11T10:42:20.028Z,4.60
2018-07-11T10:43:18.707Z,4.30
2018-07-11T10:44:18.725Z,4.40
2018-07-11T10:45:18.740Z,4.20
2018-07-11T10:46:18.755Z,5.00
2018-07-11T10:47:18.775Z,4.50
2018-07-11T10:48:18.791Z,4.50
2018-07-11T10:49:19.119Z,4.20
2018-07-11T10:50:18.825Z,4.20
2018-07-11T10:51:18.850Z,4.70
2018-07-11T10:52:19.822Z,5.00
2018-07-11T10:53:19.600Z,4.80
2018-07-11T10:54:18.885Z,4.90
2018-07-11T10:55:18.963Z,4.40
2018-07-11T10:56:18.917Z,4.60
2018-07-11T10:57:18.946Z,4.80
2018-07-11T10:58:18.949Z,5.30
2018-07-11T10:59:18.967Z,5.10
2018-07-11T11:00:35.970Z,5.20
2018-07-11T11:01:19.099Z,4.90
2018-07-11T11:02:19.030Z,5.40
2018-07-11T11:03:19.032Z,5.40
2018-07-11T11:04:19.052Z,6.80
2018-07-11T11:05:19.062Z,6.60
2018-07-11T11:06:21.044Z,7.10
2018-07-11T11:07:19.094Z,7.40
2018-07-11T11:08:19.109Z,6.60
2018-07-11T11:09:19.152Z,7.30
2018-07-11T11:10:19.721Z,7.50
2018-07-11T11:11:20.462Z,7.50
2018-07-11T11:12:19.795Z,8.50
2018-07-11T11:13:19.963Z,8.90
2018-07-11T11:14:19.737Z,8.80
2018-07-11T11:15:20.134Z,10.00
2018-07-11T11:16:19.237Z,9.40
2018-07-11T11:17:19.769Z,10.00
2018-07-11T11:19:19.398Z,10.10
2018-07-11T11:20:19.304Z,11.80
2018-07-11T11:21:19.317Z,11.90
2018-07-11T11:22:19.333Z,12.00
2018-07-11T11:23:19.359Z,13.90
2018-07-11T11:24:19.379Z,13.20
2018-07-11T11:25:19.382Z,13.90
2018-07-11T11:26:19.397Z,14.00
2018-07-11T11:27:19.411Z,14.10
2018-07-11T11:28:19.434Z,14.80
2018-07-11T11:29:19.444Z,15.70
2018-07-11T11:30:19.458Z,16.20
2018-07-11T11:31:19.562Z,15.60
2018-07-11T11:32:19.490Z,16.70
2018-07-11T11:33:19.506Z,16.80
2018-07-11T11:34:19.523Z,16.90
2018-07-11T11:37:19.591Z,18.00
2018-07-11T11:38:19.637Z,15.50
2018-07-11T11:39:19.605Z,14.90
2018-07-11T11:40:19.615Z,15.80
2018-07-11T11:41:19.632Z,15.80
2018-07-11T11:42:20.053Z,15.60
2018-07-11T11:43:19.664Z,16.80
2018-07-11T11:44:19.753Z,15.70
2018-07-11T11:46:19.709Z,15.90
2018-07-11T11:47:19.724Z,16.80
2018-07-11T11:48:19.738Z,16.40
2018-07-11T11:49:19.755Z,14.90
2018-07-11T11:50:19.774Z,14.10
2018-07-11T11:51:19.796Z,13.80
2018-07-11T11:52:19.799Z,13.50
2018-07-11T11:53:19.820Z,12.80
2018-07-11T11:54:19.841Z,11.80
2018-07-11T11:55:19.851Z,11.90
2018-07-11T11:56:19.863Z,12.30
2018-07-11T11:57:19.889Z,13.20
2018-07-11T11:58:19.899Z,12.70
2018-07-11T11:59:19.911Z,13.00
2018-07-11T12:00:19.934Z,12.60
2018-07-11T12:01:20.360Z,12.10
2018-07-11T12:02:19.965Z,12.40
2018-07-11T12:03:19.972Z,12.60
2018-07-11T12:04:20.061Z,12.70
2018-07-11T12:05:20.008Z,12.70
2018-07-11T12:06:20.021Z,12.70
2018-07-11T12:07:20.040Z,13.20
2018-07-11T12:08:20.055Z,13.30
2018-07-11T12:09:20.075Z,12.90
2018-07-11T12:10:20.084Z,12.90
2018-07-11T12:11:20.151Z,13.70
2018-07-11T12:12:20.142Z,13.10
2018-07-11T12:13:20.132Z,14.10
2018-07-11T12:14:20.145Z,13.50
2018-07-11T12:15:20.160Z,12.50
2018-07-11T12:16:20.197Z,12.90
2018-07-11T12:17:20.191Z,13.40
2018-07-11T12:18:20.208Z,14.20
2018-07-11T12:19:20.221Z,13.90
2018-07-11T12:20:20.238Z,14.00
2018-07-11T12:21:20.283Z,12.50
2018-07-11T12:22:20.267Z,13.60
2018-07-11T12:23:20.301Z,13.80
2018-07-11T12:24:20.839Z,14.10
2018-07-11T12:25:20.317Z,14.20
2018-07-11T12:26:20.334Z,13.90
2018-07-11T12:27:20.349Z,14.00
2018-07-11T12:28:20.363Z,13.60
2018-07-11T12:29:20.377Z,13.40
2018-07-11T12:30:20.392Z,12.80
2018-07-11T12:31:20.409Z,13.30
2018-07-11T12:32:20.950Z,13.10
2018-07-11T12:33:20.998Z,13.10
2018-07-11T12:34:20.458Z,13.60
2018-07-11T12:36:20.509Z,13.10
2018-07-11T12:37:20.507Z,14.10
2018-07-11T12:38:20.517Z,13.80
2018-07-11T12:39:20.557Z,14.40
2018-07-11T12:40:20.593Z,13.50
2018-07-11T12:41:20.589Z,13.90
2018-07-11T12:42:20.615Z,14.10
2018-07-11T12:43:20.608Z,14.00
2018-07-11T12:44:20.794Z,13.80
2018-07-11T12:45:22.498Z,14.10
2018-07-11T12:46:21.405Z,13.70
2018-07-11T12:47:20.666Z,14.20
2018-07-11T12:48:20.906Z,14.70
2018-07-11T12:49:20.691Z,14.80
2018-07-11T12:50:20.708Z,14.70
2018-07-11T12:51:21.336Z,14.70
2018-07-11T12:52:21.252Z,14.80
2018-07-11T12:53:20.760Z,15.80
2018-07-11T12:54:20.798Z,14.90
2018-07-11T12:55:20.812Z,15.60
2018-07-11T12:56:20.818Z,15.00
2018-07-11T12:57:21.036Z,15.70
2018-07-11T12:58:20.840Z,16.20
2018-07-11T12:59:20.852Z,16.50
2018-07-11T13:00:20.865Z,15.90
2018-07-11T13:01:20.881Z,15.80
2018-07-11T13:02:20.896Z,16.50
2018-07-11T13:03:20.931Z,15.60
2018-07-11T13:04:20.977Z,16.10
2018-07-11T13:05:20.943Z,15.30
2018-07-11T13:06:20.976Z,15.40
2018-07-11T13:07:20.974Z,14.90
2018-07-11T13:08:20.986Z,17.00
2018-07-11T13:09:21.002Z,18.00
2018-07-11T13:10:21.184Z,18.20
2018-07-11T13:11:21.180Z,18.20
2018-07-11T13:12:22.413Z,19.90
2018-07-11T13:14:24.302Z,19.90
2018-07-11T13:15:21.278Z,18.70
2018-07-11T13:16:21.233Z,19.90
2018-07-11T13:17:21.480Z,20.20
2018-07-11T13:18:21.144Z,19.50
2018-07-11T13:19:21.181Z,19.90
2018-07-11T13:20:21.176Z,18.50
2018-07-11T13:21:21.827Z,20.90
2018-07-11T13:22:21.206Z,21.00
2018-07-11T13:23:21.280Z,21.30
2018-07-11T13:24:21.825Z,22.70
2018-07-11T13:25:21.442Z,21.70
2018-07-11T13:26:21.278Z,22.20
2018-07-11T13:27:21.283Z,22.10
2018-07-11T13:28:21.529Z,20.00
2018-07-11T13:29:21.382Z,19.70
2018-07-11T13:30:21.429Z,20.00
2018-07-11T13:31:21.369Z,18.80
2018-07-11T13:32:21.608Z,19.30
2018-07-11T13:33:21.374Z,19.40
2018-07-11T13:34:21.663Z,19.60
2018-07-11T13:35:21.406Z,18.70
2018-07-11T13:36:21.419Z,19.50
2018-07-11T13:37:21.437Z,19.30
2018-07-11T13:38:21.533Z,18.60
2018-07-11T13:39:21.469Z,18.80
2018-07-11T13:40:21.499Z,18.10
2018-07-11T13:41:21.499Z,17.50
2018-07-11T13:42:21.518Z,17.90
2018-07-11T13:44:21.544Z,17.90
2018-07-11T13:45:21.560Z,18.00
2018-07-11T13:46:21.597Z,16.60
2018-07-11T13:47:21.592Z,15.90
2018-07-11T13:48:21.606Z,16.40